createdAt,value
2022-10-08T00:01:16.363Z,23.52
2022-10-08T00:03:47.648Z,21.98
2022-10-08T00:06:18.264Z,22.38
2022-10-08T00:08:50.548Z,19.48
2022-10-08T00:11:21.441Z,20.92
2022-10-08T00:13:50.824Z,22.35
2022-10-08T00:16:30.516Z,25.05
2022-10-08T00:19:04.105Z,25.38
2022-10-08T00:21:36.676Z,30.08
2022-10-08T00:24:06.099Z,27.92
2022-10-08T00:26:39.737Z,23.38
2022-10-08T00:29:13.595Z,26.90
2022-10-08T00:31:44.099Z,29.05
2022-10-08T00:34:20.179Z,27.90
2022-10-08T00:36:51.666Z,26.15
2022-10-08T00:39:20.544Z,25.38
2022-10-08T00:41:52.548Z,26.88
2022-10-08T00:44:47.990Z,29.73
2022-10-08T00:47:33.183Z,27.35
2022-10-08T00:50:23.810Z,27.95
2022-10-08T00:53:10.784Z,29.60
2022-10-08T00:55:43.665Z,27.52
2022-10-08T00:58:31.283Z,32.70
2022-10-08T01:00:58.873Z,29.83
2022-10-08T01:03:26.414Z,31.95
2022-10-08T01:06:20.945Z,30.90
2022-10-08T01:09:09.658Z,30.40
2022-10-08T01:11:55.305Z,31.73
2022-10-08T01:14:45.232Z,30.25
2022-10-08T01:17:30.569Z,30.80
2022-10-08T01:20:00.544Z,32.78
2022-10-08T01:22:46.344Z,34.10
2022-10-08T01:25:32.908Z,30.42
2022-10-08T01:28:15.212Z,32.40
2022-10-08T01:30:50.861Z,32.08
2022-10-08T01:33:32.386Z,31.63
2022-10-08T01:36:02.755Z,31.40
2022-10-08T01:41:06.787Z,33.03
2022-10-08T01:43:38.437Z,33.67
2022-10-08T01:46:31.904Z,33.83
2022-10-08T01:49:07.623Z,33.20
2022-10-08T01:51:47.386Z,39.95
2022-10-08T01:54:17.123Z,37.25
2022-10-08T01:56:47.287Z,33.97
2022-10-08T01:59:23.226Z,35.30
2022-10-08T02:01:59.501Z,30.45
2022-10-08T02:04:34.729Z,34.17
2022-10-08T02:07:09.315Z,31.58
2022-10-08T02:09:42.233Z,35.45
2022-10-08T02:12:10.506Z,30.63
2022-10-08T02:14:44.785Z,31.90
2022-10-08T02:17:45.186Z,31.45
2022-10-08T02:20:47.864Z,32.88
2022-10-08T02:23:39.739Z,31.90
2022-10-08T02:26:14.837Z,32.40
2022-10-08T02:29:00.952Z,30.10
2022-10-08T02:31:43.150Z,34.38
2022-10-08T02:34:18.426Z,33.55
2022-10-08T02:36:54.306Z,37.33
2022-10-08T02:39:25.225Z,30.60
2022-10-08T02:41:57.183Z,27.70
2022-10-08T02:44:32.863Z,33.88
2022-10-08T02:47:04.804Z,32.65
2022-10-08T02:49:37.990Z,32.50
2022-10-08T02:52:08.145Z,35.50
2022-10-08T02:54:39.361Z,30.30
2022-10-08T02:57:22.150Z,33.47
2022-10-08T02:59:49.358Z,33.97
2022-10-08T03:02:37.417Z,33.70
2022-10-08T03:05:14.306Z,34.70
2022-10-08T03:07:42.425Z,37.50
2022-10-08T03:10:10.343Z,35.10
2022-10-08T03:12:37.555Z,32.65
2022-10-08T03:15:05.304Z,32.28
2022-10-08T03:17:37.824Z,34.22
2022-10-08T03:20:07.052Z,37.47
2022-10-08T03:22:34.753Z,31.83
2022-10-08T03:25:02.342Z,29.65
2022-10-08T03:27:29.784Z,34.17
2022-10-08T03:29:59.703Z,28.60
2022-10-08T03:32:27.545Z,28.33
2022-10-08T03:34:54.812Z,28.33
2022-10-08T03:37:22.217Z,30.08
2022-10-08T03:39:49.433Z,31.75
2022-10-08T03:42:16.470Z,27.15
2022-10-08T03:44:43.649Z,26.52
2022-10-08T03:47:10.932Z,30.52
2022-10-08T03:49:38.107Z,30.50
2022-10-08T03:52:05.475Z,29.00
2022-10-08T03:54:36.265Z,31.08
2022-10-08T03:57:04.623Z,26.88
2022-10-08T03:59:32.025Z,26.05
2022-10-08T04:01:59.217Z,25.63
2022-10-08T04:04:26.395Z,26.55
2022-10-08T04:06:53.403Z,28.83
2022-10-08T04:09:20.460Z,27.38
2022-10-08T04:11:47.508Z,27.65
2022-10-08T04:14:14.618Z,26.42
2022-10-08T04:16:41.918Z,25.08
2022-10-08T04:19:11.874Z,26.65
2022-10-08T04:21:39.105Z,26.48
2022-10-08T04:24:06.436Z,28.08
2022-10-08T04:26:33.619Z,27.75
2022-10-08T04:29:00.836Z,28.15
2022-10-08T04:31:27.992Z,27.10
2022-10-08T04:33:55.367Z,26.80
2022-10-08T04:36:24.718Z,28.88
2022-10-08T04:38:51.982Z,27.58
2022-10-08T04:41:22.925Z,25.92
2022-10-08T04:43:51.390Z,27.58
2022-10-08T04:46:21.022Z,25.83
2022-10-08T04:48:51.864Z,29.70
2022-10-08T04:51:19.714Z,24.65
2022-10-08T04:53:47.303Z,25.52
2022-10-08T04:56:19.874Z,25.63
2022-10-08T04:58:47.716Z,24.77
2022-10-08T05:01:17.816Z,27.02
2022-10-08T05:03:50.454Z,25.95
2022-10-08T05:06:20.475Z,25.55
2022-10-08T05:08:48.625Z,26.00
2022-10-08T05:11:16.946Z,26.23
2022-10-08T05:13:49.145Z,25.88
2022-10-08T05:16:18.534Z,28.95
2022-10-08T05:18:46.598Z,28.43
2022-10-08T05:21:16.905Z,30.77
2022-10-08T05:23:44.235Z,30.73
2022-10-08T05:26:16.815Z,30.33
2022-10-08T05:28:45.096Z,29.23
2022-10-08T05:31:12.433Z,31.02
2022-10-08T05:33:39.912Z,33.35
2022-10-08T05:36:16.258Z,28.10
2022-10-08T05:38:46.122Z,28.58
2022-10-08T05:41:16.335Z,30.00
2022-10-08T05:43:44.217Z,25.33
2022-10-08T05:46:12.304Z,26.63
2022-10-08T05:48:40.268Z,24.05
2022-10-08T05:51:13.550Z,25.90
2022-10-08T05:53:43.564Z,25.23
2022-10-08T05:56:12.873Z,24.30
2022-10-08T05:58:41.437Z,25.13
2022-10-08T06:01:20.481Z,28.02
2022-10-08T06:03:56.539Z,30.40
2022-10-08T06:06:24.903Z,27.73
2022-10-08T06:09:02.238Z,27.13
2022-10-08T06:11:31.899Z,25.45
2022-10-08T06:14:01.266Z,26.42
2022-10-08T06:16:30.232Z,30.98
2022-10-08T06:18:57.952Z,31.50
2022-10-08T06:21:27.233Z,30.58
2022-10-08T06:23:59.427Z,29.80
2022-10-08T06:26:35.627Z,37.03
2022-10-08T06:29:07.979Z,28.02
2022-10-08T06:31:36.109Z,28.40
2022-10-08T06:34:04.990Z,28.98
2022-10-08T06:36:33.864Z,26.63
2022-10-08T06:39:04.106Z,27.52
2022-10-08T06:41:33.436Z,28.10
2022-10-08T06:44:01.835Z,25.13
2022-10-08T06:46:31.488Z,25.50
2022-10-08T06:48:59.363Z,27.52
2022-10-08T06:51:26.675Z,29.80
2022-10-08T06:53:55.746Z,32.47
2022-10-08T06:56:24.741Z,28.45
2022-10-08T06:58:52.638Z,28.35
2022-10-08T07:01:29.110Z,28.88
2022-10-08T07:04:01.017Z,27.48
2022-10-08T07:06:28.713Z,30.25
2022-10-08T07:08:58.517Z,26.30
2022-10-08T07:11:26.989Z,31.40
2022-10-08T07:13:57.944Z,26.50
2022-10-08T07:16:26.866Z,30.08
2022-10-08T07:18:56.784Z,32.22
2022-10-08T07:21:24.425Z,27.05
2022-10-08T07:23:51.983Z,27.95
2022-10-08T07:26:27.183Z,27.80
2022-10-08T07:28:58.872Z,28.10
2022-10-08T07:31:34.349Z,27.58
2022-10-08T07:34:04.713Z,25.98
2022-10-08T07:36:32.628Z,31.02
2022-10-08T07:39:06.304Z,28.17
2022-10-08T07:41:33.794Z,27.60
2022-10-08T07:44:02.486Z,29.30
2022-10-08T07:46:31.399Z,27.77
2022-10-08T07:48:59.569Z,29.35
2022-10-08T07:51:27.809Z,25.20
2022-10-08T07:54:00.117Z,24.63
2022-10-08T07:56:29.828Z,21.58
2022-10-08T07:58:58.113Z,27.52
2022-10-08T08:01:30.308Z,24.15
2022-10-08T08:04:00.212Z,20.63
2022-10-08T08:06:27.379Z,20.70
2022-10-08T08:08:55.005Z,22.77
2022-10-08T08:11:24.887Z,21.50
2022-10-08T08:13:52.915Z,19.42
2022-10-08T08:16:25.812Z,23.30
2022-10-08T08:18:57.438Z,23.75
2022-10-08T08:21:28.108Z,19.52
2022-10-08T08:23:57.836Z,22.35
2022-10-08T08:26:30.427Z,18.20
2022-10-08T08:29:00.243Z,19.20
2022-10-08T08:31:29.875Z,22.60
2022-10-08T08:33:59.761Z,21.58
2022-10-08T08:36:30.264Z,29.67
2022-10-08T08:38:57.868Z,22.85
2022-10-08T08:41:40.929Z,18.90
2022-10-08T08:44:18.958Z,21.10
2022-10-08T08:47:04.630Z,20.17
2022-10-08T08:49:42.733Z,17.85
2022-10-08T08:52:14.894Z,19.58
2022-10-08T08:54:43.563Z,20.52
2022-10-08T08:57:25.067Z,22.02
2022-10-08T08:59:56.429Z,23.90
2022-10-08T09:02:29.077Z,20.65
2022-10-08T09:05:01.708Z,20.50
2022-10-08T09:07:39.446Z,21.08
2022-10-08T09:10:09.673Z,23.20
2022-10-08T09:12:47.247Z,22.75
2022-10-08T09:15:21.997Z,21.48
2022-10-08T09:17:54.479Z,20.15
2022-10-08T09:20:26.114Z,16.55
2022-10-08T09:22:54.421Z,19.02
2022-10-08T09:25:25.559Z,17.50
2022-10-08T09:28:04.525Z,19.77
2022-10-08T09:30:41.069Z,17.00
2022-10-08T09:33:08.463Z,19.58
2022-10-08T09:35:46.226Z,20.70
2022-10-08T09:38:39.165Z,14.90
2022-10-08T09:41:19.442Z,16.05
2022-10-08T09:44:10.548Z,16.70
2022-10-08T09:46:37.830Z,16.35
2022-10-08T09:49:34.183Z,16.38
2022-10-08T09:52:07.759Z,15.20
2022-10-08T09:54:41.906Z,20.58
2022-10-08T09:57:09.215Z,18.02
2022-10-08T09:59:48.424Z,16.00
2022-10-08T10:02:34.388Z,16.33
2022-10-08T10:05:04.739Z,17.85
2022-10-08T10:07:44.943Z,14.73
2022-10-08T10:10:33.307Z,15.77
2022-10-08T10:13:10.062Z,18.05
2022-10-08T10:15:43.861Z,19.02
2022-10-08T10:18:26.975Z,16.65
2022-10-08T10:21:01.856Z,22.08
2022-10-08T10:23:44.110Z,20.25
2022-10-08T10:26:18.165Z,19.50
2022-10-08T10:28:59.295Z,20.27
2022-10-08T10:31:44.517Z,16.95
2022-10-08T10:34:18.236Z,17.38
2022-10-08T10:36:53.028Z,21.38
2022-10-08T10:39:42.019Z,17.13
2022-10-08T10:42:29.545Z,16.73
2022-10-08T10:44:58.885Z,16.80
2022-10-08T10:47:32.197Z,15.70
2022-10-08T10:50:02.334Z,22.15
2022-10-08T10:52:48.000Z,17.05
2022-10-08T10:55:40.428Z,16.63
2022-10-08T10:58:18.867Z,16.00
2022-10-08T11:01:16.689Z,13.57
2022-10-08T11:03:59.263Z,14.75
2022-10-08T11:07:00.662Z,17.60
2022-10-08T11:10:11.907Z,15.65
2022-10-08T11:12:51.716Z,16.02
2022-10-08T11:15:50.823Z,14.82
2022-10-08T11:18:53.159Z,12.77
2022-10-08T11:21:44.648Z,13.23
2022-10-08T11:24:49.076Z,13.70
2022-10-08T11:27:36.324Z,16.00
2022-10-08T11:30:14.905Z,13.63
2022-10-08T11:32:46.462Z,12.95
2022-10-08T11:35:31.912Z,14.10
2022-10-08T11:38:15.145Z,16.67
2022-10-08T11:40:46.757Z,12.27
2022-10-08T11:43:33.565Z,16.52
2022-10-08T11:46:29.002Z,14.52
2022-10-08T11:48:59.165Z,12.93
2022-10-08T11:51:26.316Z,13.82
2022-10-08T11:54:16.870Z,13.80
2022-10-08T11:56:47.475Z,13.55
2022-10-08T11:59:32.773Z,14.10
2022-10-08T12:02:07.638Z,11.85
2022-10-08T12:04:38.073Z,12.55
2022-10-08T12:10:08.306Z,20.40
2022-10-08T12:13:00.074Z,12.80
2022-10-08T12:15:28.016Z,13.25
2022-10-08T12:18:26.329Z,11.80
2022-10-08T12:21:20.814Z,9.38
2022-10-08T12:23:47.932Z,10.43
2022-10-08T12:26:16.715Z,12.02
2022-10-08T12:28:43.954Z,7.72
2022-10-08T12:31:40.348Z,6.95
2022-10-08T12:34:17.667Z,7.90
2022-10-08T12:37:16.558Z,6.32
2022-10-08T12:39:47.548Z,7.40
2022-10-08T12:42:26.143Z,6.97
2022-10-08T12:45:08.703Z,8.82
2022-10-08T12:47:38.734Z,7.28
2022-10-08T12:50:24.203Z,9.68
2022-10-08T12:52:53.084Z,6.20
2022-10-08T12:55:23.582Z,7.18
2022-10-08T12:57:52.603Z,8.73
2022-10-08T13:00:26.108Z,6.43
2022-10-08T13:03:03.874Z,8.93
2022-10-08T13:05:34.343Z,7.90
2022-10-08T13:08:29.593Z,8.00
2022-10-08T13:10:58.845Z,6.93
2022-10-08T13:13:39.536Z,9.30
2022-10-08T13:16:08.762Z,13.70
2022-10-08T13:18:37.779Z,9.05
2022-10-08T13:21:10.543Z,9.27
2022-10-08T13:23:44.108Z,7.85
2022-10-08T13:26:43.837Z,6.55
2022-10-08T13:29:23.069Z,8.50
2022-10-08T13:32:12.107Z,10.00
2022-10-08T13:34:48.864Z,12.93
2022-10-08T13:37:38.319Z,7.68
2022-10-08T13:40:18.517Z,8.57
2022-10-08T13:42:52.745Z,7.45
2022-10-08T13:45:22.864Z,13.40
2022-10-08T13:47:51.190Z,11.32
2022-10-08T13:50:20.495Z,9.52
2022-10-08T13:52:57.573Z,8.52
2022-10-08T13:55:27.709Z,8.32
2022-10-08T13:57:56.237Z,12.25
2022-10-08T14:00:23.983Z,15.05
2022-10-08T14:02:54.073Z,7.85
2022-10-08T14:05:22.863Z,9.07
2022-10-08T14:08:00.031Z,10.65
2022-10-08T14:10:27.773Z,12.48
2022-10-08T14:12:55.033Z,10.43
2022-10-08T14:15:22.345Z,12.38
2022-10-08T14:17:53.626Z,9.02
2022-10-08T14:20:20.745Z,8.85
2022-10-08T14:22:48.143Z,7.13
2022-10-08T14:25:23.083Z,8.43
2022-10-08T14:27:51.091Z,9.77
2022-10-08T14:30:19.035Z,13.95
2022-10-08T14:32:46.810Z,13.60
2022-10-08T14:35:13.976Z,10.57
2022-10-08T14:37:41.513Z,10.35
2022-10-08T14:40:12.290Z,9.25
2022-10-08T14:42:39.611Z,11.68
2022-10-08T14:45:07.520Z,9.43
2022-10-08T14:47:34.735Z,10.43
2022-10-08T14:50:02.077Z,10.05
2022-10-08T14:52:29.185Z,9.77
2022-10-08T14:54:56.363Z,11.60
2022-10-08T14:57:23.515Z,11.38
2022-10-08T14:59:50.914Z,9.35
2022-10-08T15:02:18.167Z,9.65
2022-10-08T15:04:45.476Z,11.02
2022-10-08T15:07:12.553Z,13.05
2022-10-08T15:09:41.044Z,10.52
2022-10-08T15:12:08.508Z,12.40
2022-10-08T15:14:38.228Z,11.57
2022-10-08T15:17:05.747Z,8.10
2022-10-08T15:19:32.923Z,12.85
2022-10-08T15:21:59.948Z,8.80
2022-10-08T15:24:27.230Z,12.88
2022-10-08T15:26:54.864Z,13.27
2022-10-08T15:29:21.966Z,15.70
2022-10-08T15:31:52.879Z,8.35
2022-10-08T15:34:20.987Z,12.95
2022-10-08T15:36:48.453Z,10.93
2022-10-08T15:39:19.674Z,10.13
2022-10-08T15:41:49.989Z,9.32
2022-10-08T15:44:18.102Z,10.20
2022-10-08T15:46:50.715Z,10.98
2022-10-08T15:49:17.756Z,10.27
2022-10-08T15:51:44.794Z,12.43
2022-10-08T15:54:11.928Z,10.63
2022-10-08T15:56:39.064Z,9.88
2022-10-08T15:59:06.432Z,8.25
2022-10-08T16:01:33.737Z,9.40
2022-10-08T16:04:01.244Z,10.90
2022-10-08T16:06:34.566Z,11.73
2022-10-08T16:09:03.344Z,16.05
2022-10-08T16:11:35.189Z,13.98
2022-10-08T16:14:14.369Z,11.80
2022-10-08T16:16:42.930Z,16.48
2022-10-08T16:19:13.794Z,13.68
2022-10-08T16:21:41.228Z,11.57
2022-10-08T16:24:08.606Z,14.93
2022-10-08T16:26:37.313Z,13.00
2022-10-08T16:29:08.204Z,14.10
2022-10-08T16:31:37.303Z,10.00
2022-10-08T16:34:07.148Z,9.48
2022-10-08T16:36:36.751Z,11.82
2022-10-08T16:39:06.506Z,12.98
2022-10-08T16:41:35.782Z,12.85
2022-10-08T16:44:14.688Z,12.65
2022-10-08T16:46:45.350Z,16.45
2022-10-08T16:49:22.822Z,12.68
2022-10-08T16:51:52.444Z,20.83
2022-10-08T16:54:19.948Z,16.40
2022-10-08T16:56:47.875Z,12.38
2022-10-08T16:59:20.840Z,17.52
2022-10-08T17:01:51.020Z,9.68
2022-10-08T17:04:20.482Z,11.95
2022-10-08T17:06:48.115Z,11.40
2022-10-08T17:09:17.870Z,8.93
2022-10-08T17:11:45.234Z,10.00
2022-10-08T17:14:13.084Z,12.02
2022-10-08T17:16:43.337Z,8.48
2022-10-08T17:21:38.515Z,7.90
2022-10-08T17:24:06.392Z,10.88
2022-10-08T17:26:33.493Z,9.82
2022-10-08T17:29:09.785Z,7.90
2022-10-08T17:31:37.824Z,10.20
2022-10-08T17:34:06.026Z,8.15
2022-10-08T17:36:39.147Z,15.20
2022-10-08T17:39:09.306Z,6.72
2022-10-08T17:41:38.930Z,13.68
2022-10-08T17:44:08.522Z,13.10
2022-10-08T17:46:39.833Z,9.93
2022-10-08T17:49:07.206Z,11.75
2022-10-08T17:51:34.714Z,12.32
2022-10-08T17:54:07.863Z,11.45
2022-10-08T17:56:35.408Z,9.98
2022-10-08T17:59:03.347Z,14.02
2022-10-08T18:01:36.273Z,11.70
2022-10-08T18:04:08.759Z,15.70
2022-10-08T18:06:38.877Z,12.38
2022-10-08T18:09:08.545Z,13.52
2022-10-08T18:11:37.996Z,11.38
2022-10-08T18:14:07.024Z,13.40
2022-10-08T18:16:34.380Z,13.05
2022-10-08T18:19:06.197Z,13.80
2022-10-08T18:21:35.669Z,14.02
2022-10-08T18:24:03.314Z,9.63
2022-10-08T18:26:34.748Z,11.20
2022-10-08T18:29:05.277Z,10.98
2022-10-08T18:34:23.354Z,13.68
2022-10-08T18:36:50.545Z,11.38
2022-10-08T18:39:24.794Z,12.70
2022-10-08T18:41:55.707Z,11.65
2022-10-08T18:44:25.741Z,13.63
2022-10-08T18:46:54.027Z,14.25
2022-10-08T18:49:30.895Z,8.40
2022-10-08T18:51:58.913Z,11.52
2022-10-08T18:54:26.051Z,8.77
2022-10-08T18:56:53.266Z,13.05
2022-10-08T18:59:20.582Z,11.75
2022-10-08T19:01:48.740Z,10.60
2022-10-08T19:04:21.255Z,10.15
2022-10-08T19:06:49.913Z,12.30
2022-10-08T19:09:17.231Z,9.57
2022-10-08T19:11:50.024Z,12.48
2022-10-08T19:14:20.049Z,10.32
2022-10-08T19:16:48.074Z,12.07
2022-10-08T19:19:20.464Z,10.98
2022-10-08T19:21:48.553Z,11.45
2022-10-08T19:24:21.274Z,14.70
2022-10-08T19:26:49.685Z,10.88
2022-10-08T19:29:22.506Z,9.90
2022-10-08T19:31:50.469Z,13.65
2022-10-08T19:34:25.245Z,15.60
2022-10-08T19:36:53.095Z,16.77
2022-10-08T19:39:23.875Z,14.05
2022-10-08T19:41:51.348Z,14.10
2022-10-08T19:44:19.271Z,15.73
2022-10-08T19:46:46.853Z,14.70
2022-10-08T19:49:14.599Z,15.13
2022-10-08T19:51:42.064Z,15.82
2022-10-08T19:54:09.409Z,14.98
2022-10-08T19:56:36.984Z,17.63
2022-10-08T19:59:04.477Z,12.95
2022-10-08T20:01:35.139Z,14.18
2022-10-08T20:04:04.429Z,16.25
2022-10-08T20:06:34.948Z,18.30
2022-10-08T20:09:04.045Z,14.95
2022-10-08T20:11:32.798Z,13.90
2022-10-08T20:14:01.216Z,11.90
2022-10-08T20:16:35.413Z,12.43
2022-10-08T20:19:06.606Z,11.88
2022-10-08T20:21:37.259Z,11.55
2022-10-08T20:24:05.293Z,10.57
2022-10-08T20:26:35.504Z,15.40
2022-10-08T20:29:11.504Z,13.65
2022-10-08T20:31:50.494Z,9.48
2022-10-08T20:34:20.626Z,10.73
2022-10-08T20:36:48.972Z,10.65
2022-10-08T20:39:18.234Z,10.40
2022-10-08T20:41:45.785Z,10.65
2022-10-08T20:44:13.758Z,8.20
2022-10-08T20:46:41.350Z,12.63
2022-10-08T20:49:10.855Z,10.13
2022-10-08T20:51:40.318Z,7.53
2022-10-08T20:54:09.632Z,7.30
2022-10-08T20:56:40.051Z,7.65
2022-10-08T20:59:08.847Z,7.95
2022-10-08T21:01:38.574Z,8.50
2022-10-08T21:04:07.257Z,9.63
2022-10-08T21:06:43.831Z,11.75
2022-10-08T21:09:12.356Z,8.38
2022-10-08T21:11:40.194Z,8.27
2022-10-08T21:14:10.114Z,7.88
2022-10-08T21:16:39.958Z,5.95
2022-10-08T21:19:11.709Z,7.22
2022-10-08T21:21:39.615Z,7.47
2022-10-08T21:24:07.510Z,7.63
2022-10-08T21:26:39.773Z,8.07
2022-10-08T21:29:10.505Z,7.90
2022-10-08T21:31:39.812Z,7.25
2022-10-08T21:34:07.558Z,6.90
2022-10-08T21:36:39.027Z,5.95
2022-10-08T21:39:07.844Z,5.47
2022-10-08T21:41:37.153Z,6.57
2022-10-08T21:44:06.743Z,6.43
2022-10-08T21:46:36.901Z,5.43
2022-10-08T21:49:07.564Z,5.68
2022-10-08T21:51:35.442Z,6.05
2022-10-08T21:54:05.285Z,4.57
2022-10-08T21:56:35.033Z,4.72
2022-10-08T21:59:04.028Z,4.72
2022-10-08T22:01:46.625Z,5.03
2022-10-08T22:04:19.254Z,7.65
2022-10-08T22:06:49.063Z,4.80
2022-10-08T22:09:19.446Z,4.95
2022-10-08T22:14:14.570Z,6.57
2022-10-08T22:16:41.917Z,5.55
2022-10-08T22:19:09.589Z,5.63
2022-10-08T22:21:37.240Z,6.78
2022-10-08T22:24:04.870Z,5.25
2022-10-08T22:26:34.635Z,8.23
2022-10-08T22:29:02.325Z,5.53
2022-10-08T22:31:29.548Z,9.13
2022-10-08T22:33:56.884Z,7.30
2022-10-08T22:36:26.361Z,7.85
2022-10-08T22:38:54.557Z,6.83
2022-10-08T22:41:27.091Z,7.32
2022-10-08T22:43:54.266Z,8.15
2022-10-08T22:46:27.389Z,9.27
2022-10-08T22:49:03.271Z,10.25
2022-10-08T22:51:30.838Z,9.75
2022-10-08T22:53:58.593Z,7.93
2022-10-08T22:56:28.402Z,8.07
2022-10-08T22:58:56.437Z,9.32
2022-10-08T23:01:25.526Z,6.65
2022-10-08T23:03:53.833Z,6.25
2022-10-08T23:06:24.034Z,8.13
2022-10-08T23:08:57.467Z,8.25
2022-10-08T23:11:25.051Z,7.57
2022-10-08T23:13:53.843Z,8.10
2022-10-08T23:16:21.491Z,6.88
2022-10-08T23:18:56.668Z,6.18
2022-10-08T23:21:24.794Z,6.68
2022-10-08T23:23:53.974Z,6.75
2022-10-08T23:26:22.343Z,5.38
2022-10-08T23:28:58.422Z,7.47
2022-10-08T23:31:28.462Z,8.30
2022-10-08T23:33:56.473Z,5.97
2022-10-08T23:36:26.235Z,9.95
2022-10-08T23:38:53.640Z,9.57
2022-10-08T23:41:20.986Z,6.00
2022-10-08T23:43:49.706Z,7.28
2022-10-08T23:46:20.513Z,5.75
2022-10-08T23:48:49.013Z,7.80
2022-10-08T23:51:17.030Z,7.43
2022-10-08T23:53:45.144Z,8.85
2022-10-08T23:56:12.595Z,9.32
2022-10-08T23:58:40.128Z,6.68
